createdAt,value
2019-02-25T00:01:47.076Z,56.87
2019-02-25T00:04:17.908Z,57.45
2019-02-25T00:06:47.519Z,57.40
2019-02-25T00:09:22.108Z,57.29
2019-02-25T00:11:55.668Z,57.19
2019-02-25T00:14:25.264Z,57.49
2019-02-25T00:16:55.077Z,58.17
2019-02-25T00:19:26.630Z,57.65
2019-02-25T00:21:56.582Z,57.06
2019-02-25T00:24:28.285Z,57.21
2019-02-25T00:26:58.134Z,57.87
2019-02-25T00:29:30.126Z,57.93
2019-02-25T00:32:01.447Z,57.45
2019-02-25T00:34:31.100Z,57.67
2019-02-25T00:37:00.926Z,57.49
2019-02-25T00:39:34.613Z,57.29
2019-02-25T00:42:04.374Z,57.56
2019-02-25T00:44:35.516Z,57.13
2019-02-25T00:47:07.523Z,57.63
2019-02-25T00:49:37.111Z,57.40
2019-02-25T00:52:09.932Z,57.41
2019-02-25T00:54:39.489Z,56.49
2019-02-25T00:57:09.163Z,56.68
2019-02-25T00:59:38.820Z,55.73
2019-02-25T01:02:08.295Z,56.01
2019-02-25T01:04:38.091Z,56.99
2019-02-25T01:07:07.913Z,56.64
2019-02-25T01:09:38.942Z,56.56
2019-02-25T01:12:09.571Z,57.19
2019-02-25T01:14:39.286Z,57.41
2019-02-25T01:17:09.002Z,58.25
2019-02-25T01:19:44.378Z,58.44
2019-02-25T01:22:14.107Z,58.61
2019-02-25T01:24:45.153Z,58.27
2019-02-25T01:27:15.823Z,58.11
2019-02-25T01:29:46.900Z,58.17
2019-02-25T01:32:16.607Z,57.92
2019-02-25T01:34:48.069Z,57.90
2019-02-25T01:37:19.795Z,57.48
2019-02-25T01:39:49.494Z,57.67
2019-02-25T01:42:21.238Z,56.97
2019-02-25T01:44:52.122Z,57.62
2019-02-25T01:47:21.728Z,57.04
2019-02-25T01:49:55.210Z,57.75
2019-02-25T01:52:26.126Z,57.21
2019-02-25T01:54:58.510Z,56.99
2019-02-25T01:57:28.142Z,56.35
2019-02-25T02:00:01.066Z,57.15
2019-02-25T02:02:30.846Z,58.10
2019-02-25T02:05:00.436Z,58.58
2019-02-25T02:07:31.165Z,58.92
2019-02-25T02:10:05.258Z,59.60
2019-02-25T02:12:32.605Z,58.55
2019-02-25T02:15:03.954Z,57.88
2019-02-25T02:17:35.638Z,57.54
2019-02-25T02:20:05.858Z,57.70
2019-02-25T02:22:39.829Z,56.92
2019-02-25T02:25:14.782Z,57.07
2019-02-25T02:27:46.352Z,58.10
2019-02-25T02:30:17.861Z,57.23
2019-02-25T02:32:47.591Z,58.12
2019-02-25T02:35:21.837Z,57.43
2019-02-25T02:37:54.563Z,58.28
2019-02-25T02:40:27.020Z,58.60
2019-02-25T02:42:57.792Z,58.63
2019-02-25T02:45:42.203Z,59.59
2019-02-25T02:48:17.662Z,60.01
2019-02-25T02:50:49.384Z,58.28
2019-02-25T02:53:26.006Z,58.62
2019-02-25T02:55:55.707Z,58.19
2019-02-25T02:58:25.388Z,58.93
2019-02-25T03:00:59.438Z,60.00
2019-02-25T03:03:29.176Z,59.46
2019-02-25T03:06:08.589Z,58.71
2019-02-25T03:08:38.203Z,59.31
2019-02-25T03:11:07.969Z,59.41
2019-02-25T03:13:37.702Z,59.28
2019-02-25T03:16:11.191Z,61.32
2019-02-25T03:18:44.112Z,60.63
2019-02-25T03:21:14.871Z,61.02
2019-02-25T03:23:44.659Z,60.02
2019-02-25T03:26:14.423Z,59.65
2019-02-25T03:28:48.789Z,59.84
2019-02-25T03:31:18.536Z,60.23
2019-02-25T03:33:48.211Z,60.91
2019-02-25T03:36:20.653Z,61.13
2019-02-25T03:38:50.281Z,61.54
2019-02-25T03:41:21.221Z,61.92
2019-02-25T03:43:55.957Z,61.58
2019-02-25T03:46:27.048Z,62.03
2019-02-25T03:48:56.663Z,61.20
2019-02-25T03:51:28.455Z,61.04
2019-02-25T03:54:00.043Z,60.60
2019-02-25T03:56:29.683Z,61.03
2019-02-25T03:59:03.674Z,60.14
2019-02-25T04:01:35.929Z,60.44
2019-02-25T04:04:05.712Z,60.72
2019-02-25T04:06:36.872Z,60.69
2019-02-25T04:09:11.086Z,61.37
2019-02-25T04:11:43.732Z,60.58
2019-02-25T04:14:13.472Z,59.83
2019-02-25T04:16:43.148Z,60.09
2019-02-25T04:19:12.833Z,59.54
2019-02-25T04:21:47.395Z,58.37
2019-02-25T04:24:18.479Z,58.29
2019-02-25T04:26:48.054Z,58.42
2019-02-25T04:29:19.502Z,57.82
2019-02-25T04:33:42.498Z,58.26
2019-02-25T04:36:11.999Z,58.84
2019-02-25T04:38:42.843Z,58.75
2019-02-25T04:41:17.913Z,58.16
2019-02-25T04:43:47.152Z,58.43
2019-02-25T04:46:20.123Z,58.70
2019-02-25T04:48:53.718Z,58.51
2019-02-25T04:51:28.754Z,58.24
2019-02-25T04:54:04.212Z,57.94
2019-02-25T04:56:34.002Z,57.81
2019-02-25T04:59:06.519Z,57.14
2019-02-25T05:01:36.145Z,56.95
2019-02-25T05:04:07.123Z,57.07
2019-02-25T05:06:36.766Z,56.32
2019-02-25T05:09:09.563Z,56.65
2019-02-25T05:11:39.221Z,56.94
2019-02-25T05:14:11.694Z,56.70
2019-02-25T05:16:43.854Z,56.24
2019-02-25T05:19:16.454Z,56.41
2019-02-25T05:21:46.141Z,56.36
2019-02-25T05:24:15.907Z,56.73
2019-02-25T05:26:45.465Z,56.67
2019-02-25T05:29:16.336Z,56.79
2019-02-25T05:31:47.919Z,56.01
2019-02-25T05:34:17.282Z,55.73
2019-02-25T05:36:51.541Z,56.25
2019-02-25T05:39:28.509Z,55.65
2019-02-25T05:41:58.108Z,55.34
2019-02-25T05:44:27.622Z,55.86
2019-02-25T05:47:18.681Z,55.74
2019-02-25T05:49:51.812Z,55.85
2019-02-25T05:52:23.273Z,55.85
2019-02-25T05:54:53.164Z,54.95
2019-02-25T05:57:24.413Z,53.63
2019-02-25T06:00:03.656Z,54.25
2019-02-25T06:02:34.397Z,53.53
2019-02-25T06:05:07.651Z,53.68
2019-02-25T06:07:38.580Z,55.13
2019-02-25T06:10:12.658Z,57.71
2019-02-25T06:12:47.816Z,57.70
2019-02-25T06:15:17.850Z,57.36
2019-02-25T06:17:48.485Z,57.04
2019-02-25T06:20:19.476Z,56.94
2019-02-25T06:22:49.067Z,54.91
2019-02-25T06:25:18.737Z,54.54
2019-02-25T06:27:48.306Z,52.57
2019-02-25T06:30:19.548Z,49.10
2019-02-25T06:32:53.653Z,46.87
2019-02-25T06:35:25.396Z,43.38
2019-02-25T06:37:58.062Z,41.48
2019-02-25T06:40:27.901Z,37.37
2019-02-25T06:42:57.702Z,36.49
2019-02-25T06:45:27.546Z,31.71
2019-02-25T06:47:59.544Z,28.98
2019-02-25T06:50:29.272Z,26.82
2019-02-25T06:52:58.939Z,25.36
2019-02-25T06:55:28.679Z,23.70
2019-02-25T06:57:58.251Z,21.80
2019-02-25T07:00:28.020Z,20.67
2019-02-25T07:02:58.820Z,20.58
2019-02-25T07:05:54.685Z,19.54
2019-02-25T07:08:43.295Z,19.31
2019-02-25T07:11:37.931Z,18.73
2019-02-25T07:14:31.055Z,18.62
2019-02-25T07:17:22.752Z,17.86
2019-02-25T07:20:03.180Z,15.96
2019-02-25T07:23:01.014Z,15.59
2019-02-25T07:25:40.325Z,14.73
2019-02-25T07:28:20.642Z,15.03
2019-02-25T07:31:11.303Z,15.18
2019-02-25T07:34:01.802Z,13.41
2019-02-25T07:37:09.909Z,13.69
2019-02-25T07:40:17.426Z,13.60
2019-02-25T07:43:12.237Z,13.27
2019-02-25T07:46:05.150Z,13.99
2019-02-25T07:48:57.836Z,14.03
2019-02-25T07:51:51.308Z,13.33
2019-02-25T07:54:43.735Z,13.45
2019-02-25T07:57:23.802Z,13.09
2019-02-25T08:00:07.951Z,12.74
2019-02-25T08:03:00.194Z,11.61
2019-02-25T08:05:59.934Z,11.51
2019-02-25T08:08:48.094Z,11.44
2019-02-25T08:11:27.689Z,11.54
2019-02-25T08:14:05.990Z,10.97
2019-02-25T08:16:50.557Z,11.71
2019-02-25T08:19:39.862Z,10.62
2019-02-25T08:22:26.745Z,11.39
2019-02-25T08:25:17.828Z,11.16
2019-02-25T08:28:05.703Z,10.67
2019-02-25T08:31:01.283Z,10.24
2019-02-25T08:34:18.155Z,9.76
2019-02-25T08:37:47.570Z,9.60
2019-02-25T08:41:08.381Z,9.03
2019-02-25T08:44:15.004Z,9.03
2019-02-25T08:47:06.754Z,9.17
2019-02-25T08:49:49.280Z,9.74
2019-02-25T08:52:20.112Z,9.98
2019-02-25T08:54:54.456Z,10.32
2019-02-25T08:57:24.486Z,10.06
2019-02-25T08:59:57.242Z,9.76
2019-02-25T09:02:30.302Z,9.99
2019-02-25T09:05:00.925Z,9.38
2019-02-25T09:07:33.548Z,9.24
2019-02-25T09:10:07.079Z,8.73
2019-02-25T09:12:36.627Z,8.19
2019-02-25T09:15:07.892Z,8.96
2019-02-25T09:17:45.673Z,8.86
2019-02-25T09:20:18.988Z,8.98
2019-02-25T09:22:51.299Z,8.95
2019-02-25T09:25:21.712Z,9.67
2019-02-25T09:27:51.680Z,9.98
2019-02-25T09:30:21.843Z,9.50
2019-02-25T09:32:52.174Z,9.72
2019-02-25T09:35:22.011Z,10.60
2019-02-25T09:37:54.433Z,10.01
2019-02-25T09:40:24.974Z,9.25
2019-02-25T09:42:55.893Z,9.04
2019-02-25T09:45:28.219Z,7.80
2019-02-25T09:47:59.777Z,8.19
2019-02-25T09:50:31.859Z,8.41
2019-02-25T09:53:03.852Z,8.26
2019-02-25T09:55:38.671Z,7.92
2019-02-25T09:58:11.083Z,6.99
2019-02-25T10:00:40.792Z,7.93
2019-02-25T10:03:10.523Z,9.04
2019-02-25T10:05:42.835Z,9.30
2019-02-25T10:08:15.526Z,9.76
2019-02-25T10:10:48.387Z,11.69
2019-02-25T10:13:19.764Z,9.45
2019-02-25T10:15:49.982Z,9.21
2019-02-25T10:18:20.586Z,8.51
2019-02-25T10:20:50.082Z,9.19
2019-02-25T10:23:24.088Z,9.57
2019-02-25T10:25:53.733Z,8.18
2019-02-25T10:28:23.346Z,8.56
2019-02-25T10:30:53.357Z,9.09
2019-02-25T10:33:25.828Z,9.28
2019-02-25T10:35:55.507Z,9.62
2019-02-25T10:38:25.173Z,11.23
2019-02-25T10:40:54.869Z,11.99
2019-02-25T10:43:28.075Z,12.80
2019-02-25T10:45:58.787Z,13.43
2019-02-25T10:48:29.891Z,15.66
2019-02-25T10:50:59.652Z,16.17
2019-02-25T10:53:29.431Z,17.03
2019-02-25T10:56:04.882Z,16.90
2019-02-25T10:58:35.978Z,17.62
2019-02-25T11:01:08.460Z,16.56
2019-02-25T11:03:37.449Z,17.29
2019-02-25T11:06:09.142Z,17.91
2019-02-25T11:08:41.486Z,17.90
2019-02-25T11:11:18.809Z,17.10
2019-02-25T11:13:49.199Z,17.08
2019-02-25T11:16:24.437Z,17.66
2019-02-25T11:18:57.013Z,16.94
2019-02-25T11:21:26.674Z,17.57
2019-02-25T11:23:59.223Z,19.24
2019-02-25T11:26:30.699Z,19.36
2019-02-25T11:29:00.261Z,18.89
2019-02-25T11:31:30.031Z,17.76
2019-02-25T11:34:00.649Z,16.26
2019-02-25T11:36:33.050Z,15.38
2019-02-25T11:39:06.916Z,14.77
2019-02-25T11:41:40.987Z,14.91
2019-02-25T11:44:10.536Z,13.01
2019-02-25T11:46:40.287Z,12.91
2019-02-25T11:49:11.517Z,12.44
2019-02-25T11:51:44.499Z,12.24
2019-02-25T11:54:15.337Z,12.17
2019-02-25T11:56:46.209Z,12.34
2019-02-25T11:59:15.707Z,12.90
2019-02-25T12:01:46.667Z,15.23
2019-02-25T12:04:19.442Z,17.07
2019-02-25T12:06:49.077Z,17.88
2019-02-25T12:09:18.760Z,19.67
2019-02-25T12:11:50.051Z,21.32
2019-02-25T12:14:19.744Z,23.56
2019-02-25T12:16:49.366Z,22.45
2019-02-25T12:19:19.090Z,24.23
2019-02-25T12:21:48.740Z,24.86
2019-02-25T12:24:20.140Z,24.10
2019-02-25T12:26:49.801Z,25.50
2019-02-25T12:29:19.351Z,25.64
2019-02-25T12:31:55.203Z,27.45
2019-02-25T12:34:24.759Z,27.56
2019-02-25T12:36:56.359Z,29.46
2019-02-25T12:39:27.132Z,27.36
2019-02-25T12:41:59.405Z,28.46
2019-02-25T12:44:29.070Z,28.46
2019-02-25T12:46:58.681Z,28.87
2019-02-25T12:49:29.770Z,27.21
2019-02-25T12:51:59.468Z,27.40
2019-02-25T12:54:29.119Z,26.82
2019-02-25T12:57:01.749Z,27.17
2019-02-25T12:59:33.904Z,28.33
2019-02-25T13:02:03.346Z,28.33
2019-02-25T13:04:34.915Z,27.62
2019-02-25T13:07:04.654Z,27.63
2019-02-25T13:09:36.261Z,29.04
2019-02-25T13:12:05.924Z,29.25
2019-02-25T13:14:37.658Z,29.25
2019-02-25T13:17:08.687Z,28.49
2019-02-25T13:19:38.438Z,28.82
2019-02-25T13:22:11.441Z,29.12
2019-02-25T13:24:42.571Z,29.43
2019-02-25T13:27:14.255Z,29.43
2019-02-25T13:29:43.987Z,29.67
2019-02-25T13:32:13.526Z,31.00
2019-02-25T13:34:43.248Z,31.06
2019-02-25T13:37:12.772Z,31.10
2019-02-25T13:39:43.462Z,30.90
2019-02-25T13:42:14.390Z,31.25
2019-02-25T13:44:43.939Z,30.70
2019-02-25T13:47:15.271Z,30.52
2019-02-25T13:49:46.043Z,30.70
2019-02-25T13:52:17.043Z,31.22
2019-02-25T13:54:47.916Z,29.55
2019-02-25T13:57:17.547Z,29.31
2019-02-25T13:59:47.112Z,29.42
2019-02-25T14:02:16.817Z,30.41
2019-02-25T14:04:48.185Z,31.75
2019-02-25T14:07:18.193Z,31.75
2019-02-25T14:09:47.779Z,30.45
2019-02-25T14:12:17.455Z,30.61
2019-02-25T14:14:47.171Z,30.78
2019-02-25T14:17:17.095Z,30.78
2019-02-25T14:19:46.685Z,30.27
2019-02-25T14:22:19.569Z,30.50
2019-02-25T14:24:49.366Z,31.35
2019-02-25T14:27:18.925Z,31.23
2019-02-25T14:29:48.947Z,31.78
2019-02-25T14:32:20.409Z,32.37
2019-02-25T14:34:50.403Z,32.10
2019-02-25T14:37:26.044Z,32.17
2019-02-25T14:39:56.685Z,32.91
2019-02-25T14:42:28.905Z,33.17
2019-02-25T14:45:01.075Z,33.50
2019-02-25T14:47:35.102Z,34.32
2019-02-25T14:50:03.930Z,34.29
2019-02-25T14:52:35.702Z,34.36
2019-02-25T14:55:07.102Z,34.61
2019-02-25T14:57:38.078Z,35.10
2019-02-25T15:00:13.351Z,35.57
2019-02-25T15:02:50.246Z,36.25
2019-02-25T15:05:19.858Z,36.32
2019-02-25T15:07:51.157Z,36.25
2019-02-25T15:10:26.555Z,36.65
2019-02-25T15:12:56.472Z,36.62
2019-02-25T15:15:26.383Z,36.76
2019-02-25T15:17:55.955Z,37.10
2019-02-25T15:20:26.783Z,37.66
2019-02-25T15:23:03.464Z,37.65
2019-02-25T15:25:40.265Z,37.79
2019-02-25T15:28:11.921Z,37.54
2019-02-25T15:30:43.207Z,36.83
2019-02-25T15:33:15.987Z,37.65
2019-02-25T15:35:45.774Z,37.75
2019-02-25T15:38:22.697Z,37.45
2019-02-25T15:40:49.980Z,36.98
2019-02-25T15:43:22.900Z,37.47
2019-02-25T15:45:52.297Z,38.26
2019-02-25T15:48:22.401Z,37.99
2019-02-25T15:50:55.487Z,38.68
2019-02-25T15:53:28.461Z,38.46
2019-02-25T15:56:03.691Z,38.56
2019-02-25T15:58:33.380Z,38.52
2019-02-25T16:01:02.993Z,37.81
2019-02-25T16:03:35.143Z,37.58
2019-02-25T16:06:08.367Z,37.82
2019-02-25T16:08:49.832Z,37.61
2019-02-25T16:11:18.808Z,38.41
2019-02-25T16:13:49.140Z,38.43
2019-02-25T16:16:20.475Z,38.25
2019-02-25T16:18:53.519Z,38.41
2019-02-25T16:21:26.663Z,38.55
2019-02-25T16:23:59.295Z,37.56
2019-02-25T16:26:36.049Z,38.62
2019-02-25T16:29:04.635Z,38.29
2019-02-25T16:31:35.240Z,38.67
2019-02-25T16:34:04.729Z,38.97
2019-02-25T16:36:34.297Z,39.26
2019-02-25T16:39:07.241Z,39.41
2019-02-25T16:41:38.410Z,39.83
2019-02-25T16:44:09.119Z,39.50
2019-02-25T16:46:43.537Z,39.77
2019-02-25T16:49:12.942Z,39.45
2019-02-25T16:51:42.770Z,39.99
2019-02-25T16:54:13.581Z,40.75
2019-02-25T16:56:44.236Z,39.74
2019-02-25T16:59:15.713Z,39.74
2019-02-25T17:01:45.640Z,40.21
2019-02-25T17:04:16.843Z,40.03
2019-02-25T17:06:49.030Z,39.94
2019-02-25T17:09:23.667Z,41.23
2019-02-25T17:11:53.378Z,41.23
2019-02-25T17:14:25.616Z,40.47
2019-02-25T17:16:57.365Z,40.47
2019-02-25T17:19:26.821Z,40.81
2019-02-25T17:21:56.513Z,41.03
2019-02-25T17:24:30.344Z,42.15
2019-02-25T17:27:01.933Z,42.15
2019-02-25T17:29:33.570Z,42.20
2019-02-25T17:32:03.618Z,42.63
2019-02-25T17:34:34.486Z,42.73
2019-02-25T17:37:05.947Z,43.34
2019-02-25T17:39:37.637Z,43.34
2019-02-25T17:42:16.021Z,44.02
2019-02-25T17:44:46.263Z,44.00
2019-02-25T17:47:24.060Z,44.00
2019-02-25T17:49:47.206Z,44.41
2019-02-25T17:52:18.514Z,45.04
2019-02-25T17:54:51.696Z,45.50
2019-02-25T17:57:21.605Z,45.77
2019-02-25T17:59:54.885Z,45.87
2019-02-25T18:02:22.764Z,46.21
2019-02-25T18:04:53.293Z,46.79
2019-02-25T18:07:23.484Z,46.79
2019-02-25T18:09:54.582Z,47.38
2019-02-25T18:12:25.718Z,47.81
2019-02-25T18:14:56.613Z,47.81
2019-02-25T18:17:26.668Z,48.83
2019-02-25T18:19:56.858Z,48.16
2019-02-25T18:22:26.571Z,48.16
2019-02-25T18:24:56.161Z,47.54
2019-02-25T18:27:28.792Z,47.25
2019-02-25T18:29:59.315Z,47.41
2019-02-25T18:32:30.569Z,47.41
2019-02-25T18:35:02.049Z,47.61
2019-02-25T18:37:35.281Z,47.62
2019-02-25T18:40:05.274Z,49.00
2019-02-25T18:42:36.562Z,48.67
2019-02-25T18:45:08.695Z,48.67
2019-02-25T18:47:39.303Z,48.78
2019-02-25T18:50:17.418Z,48.78
2019-02-25T18:52:44.088Z,48.49
2019-02-25T18:55:15.393Z,48.39
2019-02-25T18:57:46.122Z,47.81
2019-02-25T19:00:24.299Z,48.18
2019-02-25T19:02:56.183Z,48.23
2019-02-25T19:05:29.766Z,48.07
2019-02-25T19:08:00.836Z,48.57
2019-02-25T19:10:30.887Z,48.79
2019-02-25T19:13:01.154Z,50.48
2019-02-25T19:15:31.054Z,50.48
2019-02-25T19:18:03.574Z,50.55
2019-02-25T19:20:34.793Z,50.64
2019-02-25T19:23:09.465Z,50.64
2019-02-25T19:25:37.704Z,50.68
2019-02-25T19:28:07.730Z,50.29
2019-02-25T19:30:37.420Z,50.29
2019-02-25T19:33:11.352Z,50.50
2019-02-25T19:35:40.967Z,50.37
2019-02-25T19:38:12.944Z,50.55
2019-02-25T19:40:43.209Z,50.42
2019-02-25T19:43:14.104Z,50.65
2019-02-25T19:45:45.455Z,51.29
2019-02-25T19:48:16.442Z,51.79
2019-02-25T19:50:51.000Z,52.29
2019-02-25T19:53:20.019Z,51.85
2019-02-25T19:55:51.083Z,51.77
2019-02-25T19:58:20.375Z,51.73
2019-02-25T20:00:58.420Z,51.90
2019-02-25T20:03:25.320Z,52.72
2019-02-25T20:05:56.314Z,52.72
2019-02-25T20:08:26.181Z,52.97
2019-02-25T20:10:55.915Z,52.97
2019-02-25T20:13:25.699Z,53.22
2019-02-25T20:15:57.523Z,53.53
2019-02-25T20:18:26.886Z,53.06
2019-02-25T20:20:57.773Z,53.05
2019-02-25T20:23:28.824Z,52.90
2019-02-25T20:25:59.546Z,52.67
2019-02-25T20:28:29.159Z,53.41
2019-02-25T20:31:01.763Z,53.41
2019-02-25T20:33:32.951Z,53.13
2019-02-25T20:36:03.270Z,53.13
2019-02-25T20:38:34.813Z,52.73
2019-02-25T20:41:07.018Z,51.33
2019-02-25T20:43:36.832Z,51.86
2019-02-25T20:46:08.577Z,52.25
2019-02-25T20:48:38.159Z,52.25
2019-02-25T20:51:09.473Z,52.33
2019-02-25T20:53:39.146Z,51.97
2019-02-25T20:56:08.938Z,52.82
2019-02-25T20:58:43.050Z,53.57
2019-02-25T21:01:16.095Z,53.57
2019-02-25T21:03:46.023Z,53.13
2019-02-25T21:06:19.528Z,53.13
2019-02-25T21:08:48.333Z,53.53
2019-02-25T21:11:19.443Z,53.46
2019-02-25T21:13:51.200Z,53.48
2019-02-25T21:16:24.042Z,53.64
2019-02-25T21:18:56.094Z,53.75
2019-02-25T21:21:28.528Z,51.59
2019-02-25T21:24:01.310Z,51.59
2019-02-25T21:26:31.536Z,51.07
2019-02-25T21:29:06.878Z,48.69
2019-02-25T21:31:36.569Z,49.30
2019-02-25T21:34:06.770Z,46.74
2019-02-25T21:36:38.228Z,46.74
2019-02-25T21:39:12.279Z,46.13
2019-02-25T21:41:43.508Z,45.76
2019-02-25T21:44:16.699Z,45.57
2019-02-25T21:46:49.579Z,45.61
2019-02-25T21:49:16.532Z,44.60
2019-02-25T21:51:48.350Z,45.25
2019-02-25T21:54:18.111Z,45.32
2019-02-25T21:56:47.849Z,44.90
2019-02-25T21:59:17.706Z,44.90
2019-02-25T22:01:47.382Z,44.27
2019-02-25T22:04:18.066Z,44.41
2019-02-25T22:06:50.964Z,44.32
2019-02-25T22:09:35.276Z,44.32
2019-02-25T22:11:51.222Z,44.86
2019-02-25T22:14:21.786Z,43.45
2019-02-25T22:16:54.283Z,43.45
2019-02-25T22:19:23.641Z,44.64
2019-02-25T22:21:55.644Z,44.17
2019-02-25T22:24:27.159Z,43.97
2019-02-25T22:26:57.954Z,45.06
2019-02-25T22:29:27.271Z,44.60
2019-02-25T22:31:59.576Z,44.60
2019-02-25T22:34:28.549Z,45.25
2019-02-25T22:36:58.249Z,44.92
2019-02-25T22:39:30.224Z,44.92
2019-02-25T22:41:59.385Z,45.93
2019-02-25T22:44:30.821Z,45.98
2019-02-25T22:47:05.151Z,46.50
2019-02-25T22:49:36.887Z,45.32
2019-02-25T22:52:07.479Z,45.27
2019-02-25T22:54:39.145Z,45.49
2019-02-25T22:57:12.269Z,45.55
2019-02-25T22:59:44.365Z,45.98
2019-02-25T23:02:16.429Z,46.43
2019-02-25T23:04:49.164Z,46.01
2019-02-25T23:07:20.543Z,45.72
2019-02-25T23:09:52.228Z,45.90
2019-02-25T23:12:25.009Z,45.41
2019-02-25T23:14:56.132Z,45.65
2019-02-25T23:17:26.924Z,45.79
2019-02-25T23:19:57.967Z,45.46
2019-02-25T23:22:30.092Z,45.46
2019-02-25T23:25:07.041Z,45.17
2019-02-25T23:27:37.096Z,45.48
2019-02-25T23:30:08.634Z,45.11
2019-02-25T23:32:40.528Z,44.60
2019-02-25T23:35:13.606Z,44.52
2019-02-25T23:37:49.042Z,44.39
2019-02-25T23:40:17.954Z,44.65
2019-02-25T23:42:49.114Z,44.06
2019-02-25T23:45:22.492Z,44.68
2019-02-25T23:47:55.303Z,45.15
2019-02-25T23:50:21.741Z,45.15
2019-02-25T23:52:54.416Z,44.47
2019-02-25T23:55:29.664Z,44.90
2019-02-25T23:57:59.379Z,44.35
